createdAt,value
2018-03-18T00:00:31.041Z,0.00
2018-03-18T00:01:31.085Z,0.00
2018-03-18T00:02:31.135Z,0.00
2018-03-18T00:03:31.187Z,0.00
2018-03-18T00:04:31.236Z,0.00
2018-03-18T00:05:31.288Z,0.00
2018-03-18T00:06:31.337Z,0.00
2018-03-18T00:07:31.388Z,0.00
2018-03-18T00:08:31.446Z,0.00
2018-03-18T00:09:31.485Z,0.00
2018-03-18T00:10:31.538Z,0.00
2018-03-18T00:11:31.587Z,0.00
2018-03-18T00:12:31.639Z,0.00
2018-03-18T00:13:31.687Z,0.00
2018-03-18T00:14:31.737Z,0.00
2018-03-18T00:15:31.789Z,0.00
2018-03-18T00:16:31.841Z,0.00
2018-03-18T00:17:31.891Z,0.00
2018-03-18T00:18:31.942Z,0.00
2018-03-18T00:19:32.016Z,0.00
2018-03-18T00:20:32.039Z,0.00
2018-03-18T00:21:32.089Z,0.00
2018-03-18T00:22:32.140Z,0.00
2018-03-18T00:23:32.193Z,0.00
2018-03-18T00:24:32.241Z,0.00
2018-03-18T00:25:32.291Z,0.00
2018-03-18T00:26:32.341Z,0.00
2018-03-18T00:27:32.393Z,0.00
2018-03-18T00:28:32.443Z,0.00
2018-03-18T00:29:32.493Z,0.00
2018-03-18T00:30:32.544Z,0.00
2018-03-18T00:31:32.594Z,0.00
2018-03-18T00:32:32.645Z,0.00
2018-03-18T00:33:33.330Z,0.00
2018-03-18T00:34:32.743Z,0.00
2018-03-18T00:35:32.795Z,0.00
2018-03-18T00:36:32.845Z,0.00
2018-03-18T00:37:32.895Z,0.00
2018-03-18T00:38:32.978Z,0.00
2018-03-18T00:39:32.995Z,0.00
2018-03-18T00:40:33.046Z,0.00
2018-03-18T00:41:33.098Z,0.00
2018-03-18T00:42:33.145Z,0.00
2018-03-18T00:43:33.196Z,0.00
2018-03-18T00:44:33.247Z,0.00
2018-03-18T00:45:33.297Z,0.00
2018-03-18T00:46:33.348Z,0.00
2018-03-18T00:47:33.442Z,0.00
2018-03-18T00:48:33.452Z,0.00
2018-03-18T00:49:33.503Z,0.00
2018-03-18T00:50:33.549Z,0.00
2018-03-18T00:51:33.602Z,0.00
2018-03-18T00:52:33.648Z,0.00
2018-03-18T00:53:33.717Z,0.00
2018-03-18T00:54:33.750Z,0.00
2018-03-18T00:55:33.800Z,0.00
2018-03-18T00:56:33.851Z,0.00
2018-03-18T00:57:33.933Z,0.00
2018-03-18T00:58:33.950Z,0.00
2018-03-18T00:59:34.002Z,0.00
2018-03-18T01:00:34.053Z,0.00
2018-03-18T01:01:34.103Z,0.00
2018-03-18T01:02:34.152Z,0.00
2018-03-18T01:03:34.201Z,0.00
2018-03-18T01:04:34.254Z,0.00
2018-03-18T01:05:34.303Z,0.00
2018-03-18T01:06:34.353Z,0.00
2018-03-18T01:07:34.404Z,0.00
2018-03-18T01:08:34.454Z,0.00
2018-03-18T01:09:34.503Z,0.00
2018-03-18T01:10:34.555Z,0.00
2018-03-18T01:11:34.604Z,0.00
2018-03-18T01:12:34.661Z,0.00
2018-03-18T01:13:34.705Z,0.00
2018-03-18T01:14:34.755Z,0.00
2018-03-18T01:15:34.806Z,0.00
2018-03-18T01:16:34.857Z,0.00
2018-03-18T01:17:34.905Z,0.00
2018-03-18T01:18:34.959Z,0.00
2018-03-18T01:19:35.007Z,0.00
2018-03-18T01:20:35.057Z,0.00
2018-03-18T01:21:35.106Z,0.00
2018-03-18T01:22:35.157Z,0.00
2018-03-18T01:23:35.208Z,0.00
2018-03-18T01:24:35.258Z,0.00
2018-03-18T01:25:35.308Z,0.00
2018-03-18T01:26:35.359Z,0.00
2018-03-18T01:27:35.408Z,0.00
2018-03-18T01:28:35.458Z,0.00
2018-03-18T01:29:35.509Z,0.00
2018-03-18T01:30:35.559Z,0.00
2018-03-18T01:31:35.610Z,0.00
2018-03-18T01:32:35.660Z,0.00
2018-03-18T01:33:35.713Z,0.00
2018-03-18T01:34:35.760Z,0.00
2018-03-18T01:35:35.810Z,0.00
2018-03-18T01:36:35.893Z,0.00
2018-03-18T01:37:35.911Z,0.00
2018-03-18T01:38:35.963Z,0.00
2018-03-18T01:39:36.010Z,0.00
2018-03-18T01:40:36.061Z,0.00
2018-03-18T01:41:36.111Z,0.00
2018-03-18T01:42:36.162Z,0.00
2018-03-18T01:43:36.212Z,0.00
2018-03-18T01:44:36.268Z,0.00
2018-03-18T01:45:36.312Z,0.00
2018-03-18T01:46:36.363Z,0.00
2018-03-18T01:47:36.413Z,0.00
2018-03-18T01:48:36.464Z,0.00
2018-03-18T01:49:36.513Z,0.00
2018-03-18T01:50:36.563Z,0.00
2018-03-18T01:51:36.613Z,0.00
2018-03-18T01:52:36.664Z,0.00
2018-03-18T01:53:36.715Z,0.00
2018-03-18T01:54:36.764Z,0.00
2018-03-18T01:55:36.813Z,0.00
2018-03-18T01:56:36.865Z,0.00
2018-03-18T01:57:36.914Z,0.00
2018-03-18T01:58:36.964Z,0.00
2018-03-18T01:59:37.016Z,0.00
2018-03-18T02:00:37.064Z,0.00
2018-03-18T02:01:37.114Z,0.00
2018-03-18T02:02:37.167Z,0.00
2018-03-18T02:03:37.216Z,0.00
2018-03-18T02:04:37.265Z,0.00
2018-03-18T02:05:37.357Z,0.00
2018-03-18T02:06:37.366Z,0.00
2018-03-18T02:07:37.415Z,0.00
2018-03-18T02:08:37.465Z,0.00
2018-03-18T02:09:37.515Z,0.00
2018-03-18T02:10:37.566Z,0.00
2018-03-18T02:11:37.616Z,0.00
2018-03-18T02:12:37.666Z,0.00
2018-03-18T02:13:37.716Z,0.00
2018-03-18T02:14:37.791Z,0.00
2018-03-18T02:15:37.815Z,0.00
2018-03-18T02:16:37.867Z,0.00
2018-03-18T02:17:37.917Z,0.00
2018-03-18T02:18:37.967Z,0.00
2018-03-18T02:19:38.017Z,0.00
2018-03-18T02:20:38.066Z,0.00
2018-03-18T02:21:38.115Z,0.00
2018-03-18T02:22:38.165Z,0.00
2018-03-18T02:23:38.224Z,0.00
2018-03-18T02:24:38.268Z,0.00
2018-03-18T02:25:38.316Z,0.00
2018-03-18T02:26:38.366Z,0.00
2018-03-18T02:27:38.416Z,0.00
2018-03-18T02:28:38.466Z,0.00
2018-03-18T02:29:38.524Z,0.00
2018-03-18T02:30:38.566Z,0.00
2018-03-18T02:31:38.616Z,0.00
2018-03-18T02:32:38.667Z,0.00
2018-03-18T02:33:38.716Z,0.00
2018-03-18T02:34:38.765Z,0.00
2018-03-18T02:35:38.815Z,0.00
2018-03-18T02:36:38.865Z,0.00
2018-03-18T02:37:38.916Z,0.00
2018-03-18T02:38:38.965Z,0.00
2018-03-18T02:39:39.019Z,0.00
2018-03-18T02:40:39.067Z,0.00
2018-03-18T02:41:39.115Z,0.00
2018-03-18T02:42:39.164Z,0.00
2018-03-18T02:43:39.213Z,0.00
2018-03-18T02:44:39.263Z,0.00
2018-03-18T02:45:39.313Z,0.00
2018-03-18T02:46:39.613Z,0.00
2018-03-18T02:47:39.412Z,0.00
2018-03-18T02:48:39.463Z,0.00
2018-03-18T02:49:39.512Z,0.00
2018-03-18T02:50:39.562Z,0.00
2018-03-18T02:51:39.614Z,0.00
2018-03-18T02:52:39.661Z,0.00
2018-03-18T02:53:39.710Z,0.00
2018-03-18T02:54:39.761Z,0.00
2018-03-18T02:55:39.811Z,0.00
2018-03-18T02:56:39.861Z,0.00
2018-03-18T02:57:39.919Z,0.00
2018-03-18T02:58:39.960Z,0.00
2018-03-18T02:59:40.011Z,0.00
2018-03-18T03:00:40.059Z,0.00
2018-03-18T03:01:40.112Z,0.00
2018-03-18T03:02:40.158Z,0.00
2018-03-18T03:03:40.209Z,0.00
2018-03-18T03:04:40.260Z,0.00
2018-03-18T03:05:40.306Z,0.00
2018-03-18T03:06:40.364Z,0.00
2018-03-18T03:07:40.406Z,0.00
2018-03-18T03:08:40.457Z,0.00
2018-03-18T03:09:40.507Z,0.00
2018-03-18T03:10:40.557Z,0.00
2018-03-18T03:11:40.607Z,0.00
2018-03-18T03:12:40.656Z,0.00
2018-03-18T03:13:40.704Z,0.00
2018-03-18T03:14:40.754Z,0.00
2018-03-18T03:15:40.954Z,0.00
2018-03-18T03:16:40.859Z,0.00
2018-03-18T03:17:40.904Z,0.00
2018-03-18T03:18:40.953Z,0.00
2018-03-18T03:19:41.003Z,0.00
2018-03-18T03:20:41.053Z,0.00
2018-03-18T03:21:41.102Z,0.00
2018-03-18T03:22:41.152Z,0.00
2018-03-18T03:23:41.201Z,0.00
2018-03-18T03:24:41.252Z,0.00
2018-03-18T03:25:41.301Z,0.00
2018-03-18T03:26:41.350Z,0.00
2018-03-18T03:27:41.400Z,0.00
2018-03-18T03:28:41.450Z,0.00
2018-03-18T03:29:41.499Z,0.00
2018-03-18T03:30:41.558Z,0.00
2018-03-18T03:31:41.600Z,0.00
2018-03-18T03:32:41.799Z,0.00
2018-03-18T03:33:41.696Z,0.00
2018-03-18T03:34:41.746Z,0.00
2018-03-18T03:35:41.797Z,0.00
2018-03-18T03:36:41.854Z,0.00
2018-03-18T03:37:41.894Z,0.00
2018-03-18T03:38:41.946Z,0.00
2018-03-18T03:39:41.995Z,0.00
2018-03-18T03:40:42.044Z,0.00
2018-03-18T03:41:42.094Z,0.00
2018-03-18T03:42:42.143Z,0.00
2018-03-18T03:43:42.193Z,0.00
2018-03-18T03:44:42.243Z,0.00
2018-03-18T03:45:42.292Z,0.00
2018-03-18T03:46:42.342Z,0.00
2018-03-18T03:47:42.391Z,0.00
2018-03-18T03:48:42.442Z,0.00
2018-03-18T03:49:42.490Z,0.00
2018-03-18T03:50:42.539Z,0.00
2018-03-18T03:51:42.590Z,0.00
2018-03-18T03:52:42.640Z,0.00
2018-03-18T03:53:42.688Z,0.00
2018-03-18T03:54:42.741Z,0.00
2018-03-18T03:55:42.792Z,0.00
2018-03-18T03:56:42.837Z,0.00
2018-03-18T03:57:42.885Z,0.00
2018-03-18T03:58:42.946Z,0.00
2018-03-18T03:59:42.988Z,0.00
2018-03-18T04:00:43.035Z,0.00
2018-03-18T04:01:43.085Z,0.00
2018-03-18T04:02:43.135Z,0.00
2018-03-18T04:03:43.184Z,0.00
2018-03-18T04:04:43.233Z,0.00
2018-03-18T04:05:43.282Z,0.00
2018-03-18T04:06:43.332Z,0.00
2018-03-18T04:07:43.383Z,0.00
2018-03-18T04:08:43.432Z,0.00
2018-03-18T04:09:43.481Z,0.00
2018-03-18T04:10:43.530Z,0.00
2018-03-18T04:11:43.581Z,0.00
2018-03-18T04:12:43.629Z,0.00
2018-03-18T04:13:43.680Z,0.00
2018-03-18T04:14:43.733Z,0.00
2018-03-18T04:15:43.779Z,0.00
2018-03-18T04:16:43.834Z,0.00
2018-03-18T04:17:44.178Z,0.00
2018-03-18T04:18:43.927Z,0.00
2018-03-18T04:19:43.977Z,0.00
2018-03-18T04:20:44.027Z,0.00
2018-03-18T04:21:44.075Z,0.00
2018-03-18T04:22:44.127Z,0.00
2018-03-18T04:23:44.175Z,0.00
2018-03-18T04:24:44.224Z,0.00
2018-03-18T04:25:44.273Z,0.00
2018-03-18T04:26:44.323Z,0.00
2018-03-18T04:27:44.372Z,0.00
2018-03-18T04:28:44.426Z,0.00
2018-03-18T04:29:44.472Z,0.00
2018-03-18T04:30:44.522Z,0.00
2018-03-18T04:31:44.572Z,0.00
2018-03-18T04:32:44.622Z,0.00
2018-03-18T04:33:44.669Z,0.00
2018-03-18T04:34:44.720Z,0.00
2018-03-18T04:35:44.770Z,0.00
2018-03-18T04:36:44.818Z,0.00
2018-03-18T04:37:44.868Z,0.00
2018-03-18T04:38:44.917Z,0.00
2018-03-18T04:39:44.967Z,0.00
2018-03-18T04:40:45.017Z,0.00
2018-03-18T04:41:45.066Z,0.00
2018-03-18T04:42:45.116Z,0.00
2018-03-18T04:43:45.167Z,0.00
2018-03-18T04:44:45.216Z,0.00
2018-03-18T04:45:45.266Z,0.00
2018-03-18T04:46:45.314Z,0.00
2018-03-18T04:47:45.365Z,0.00
2018-03-18T04:48:45.414Z,0.00
2018-03-18T04:49:45.462Z,0.00
2018-03-18T04:50:45.515Z,0.00
2018-03-18T04:51:45.561Z,0.00
2018-03-18T04:52:45.613Z,0.00
2018-03-18T04:53:45.663Z,0.00
2018-03-18T04:54:45.710Z,0.00
2018-03-18T04:55:45.760Z,0.00
2018-03-18T04:56:45.812Z,0.00
2018-03-18T04:57:45.860Z,0.00
2018-03-18T04:58:45.909Z,0.00
2018-03-18T04:59:45.960Z,0.00
2018-03-18T05:00:46.030Z,0.00
2018-03-18T05:01:46.058Z,0.00
2018-03-18T05:02:46.108Z,0.00
2018-03-18T05:03:46.158Z,0.00
2018-03-18T05:04:46.207Z,0.00
2018-03-18T05:05:46.257Z,0.00
2018-03-18T05:06:46.306Z,0.00
2018-03-18T05:07:46.357Z,0.00
2018-03-18T05:08:46.406Z,0.00
2018-03-18T05:09:46.456Z,0.00
2018-03-18T05:10:46.506Z,0.00
2018-03-18T05:11:46.556Z,0.00
2018-03-18T05:12:46.619Z,0.00
2018-03-18T05:13:46.655Z,0.00
2018-03-18T05:14:46.704Z,0.00
2018-03-18T05:15:46.753Z,0.00
2018-03-18T05:16:46.802Z,0.00
2018-03-18T05:17:46.851Z,0.00
2018-03-18T05:18:46.902Z,0.00
2018-03-18T05:19:47.253Z,0.00
2018-03-18T05:20:47.001Z,0.00
2018-03-18T05:21:47.051Z,0.00
2018-03-18T05:22:47.101Z,0.00
2018-03-18T05:23:47.150Z,0.00
2018-03-18T05:24:47.199Z,0.00
2018-03-18T05:25:47.249Z,0.00
2018-03-18T05:26:47.300Z,0.00
2018-03-18T05:27:47.349Z,0.00
2018-03-18T05:28:47.398Z,0.00
2018-03-18T05:29:47.449Z,0.00
2018-03-18T05:30:47.496Z,0.00
2018-03-18T05:31:47.548Z,0.00
2018-03-18T05:32:47.598Z,0.00
2018-03-18T05:33:47.645Z,0.00
2018-03-18T05:34:47.696Z,0.00
2018-03-18T05:35:47.745Z,0.00
2018-03-18T05:36:47.799Z,0.00
2018-03-18T05:37:47.844Z,0.00
2018-03-18T05:38:47.894Z,0.00
2018-03-18T05:39:47.943Z,0.00
2018-03-18T05:40:47.995Z,0.00
2018-03-18T05:41:48.044Z,0.00
2018-03-18T05:42:48.095Z,0.00
2018-03-18T05:43:48.143Z,0.00
2018-03-18T05:44:48.193Z,5.63
2018-03-18T05:45:48.243Z,5.63
2018-03-18T05:46:48.293Z,5.63
2018-03-18T05:47:48.341Z,5.63
2018-03-18T05:48:48.391Z,5.63
2018-03-18T05:49:48.441Z,5.63
2018-03-18T05:50:48.489Z,11.25
2018-03-18T05:51:48.540Z,11.25
2018-03-18T05:52:48.590Z,16.88
2018-03-18T05:53:48.641Z,16.88
2018-03-18T05:54:48.689Z,22.50
2018-03-18T05:55:48.739Z,22.50
2018-03-18T05:56:48.788Z,22.50
2018-03-18T05:57:48.847Z,28.13
2018-03-18T05:58:48.887Z,22.50
2018-03-18T05:59:48.938Z,22.50
2018-03-18T06:00:48.988Z,28.13
2018-03-18T06:01:49.040Z,28.13
2018-03-18T06:02:49.085Z,28.13
2018-03-18T06:03:49.136Z,33.75
2018-03-18T06:04:49.186Z,39.38
2018-03-18T06:05:49.234Z,39.38
2018-03-18T06:06:49.286Z,39.38
2018-03-18T06:07:49.333Z,39.38
2018-03-18T06:08:49.382Z,45.00
2018-03-18T06:09:49.431Z,50.63
2018-03-18T06:10:49.483Z,56.25
2018-03-18T06:11:49.532Z,56.25
2018-03-18T06:12:49.582Z,61.88
2018-03-18T06:13:49.631Z,56.25
2018-03-18T06:14:49.679Z,56.25
2018-03-18T06:15:49.729Z,56.25
2018-03-18T06:16:49.778Z,61.88
2018-03-18T06:17:49.829Z,56.25
2018-03-18T06:18:49.878Z,56.25
2018-03-18T06:19:49.927Z,61.88
2018-03-18T06:20:49.978Z,61.88
2018-03-18T06:21:50.026Z,67.50
2018-03-18T06:22:50.075Z,67.50
2018-03-18T06:23:50.124Z,67.50
2018-03-18T06:24:50.180Z,67.50
2018-03-18T06:25:50.223Z,73.13
2018-03-18T06:26:50.273Z,84.38
2018-03-18T06:27:50.322Z,84.38
2018-03-18T06:28:50.372Z,78.75
2018-03-18T06:29:50.421Z,78.75
2018-03-18T06:30:50.471Z,73.13
2018-03-18T06:31:50.520Z,73.13
2018-03-18T06:32:50.571Z,78.75
2018-03-18T06:33:50.620Z,95.63
2018-03-18T06:34:50.668Z,90.00
2018-03-18T06:35:50.718Z,90.00
2018-03-18T06:36:50.770Z,95.63
2018-03-18T06:37:50.818Z,101.25
2018-03-18T06:38:50.868Z,101.25
2018-03-18T06:39:50.916Z,101.25
2018-03-18T06:40:50.968Z,101.25
2018-03-18T06:41:51.016Z,106.88
2018-03-18T06:42:51.067Z,112.50
2018-03-18T06:43:51.120Z,101.25
2018-03-18T06:44:51.165Z,90.00
2018-03-18T06:45:51.224Z,106.88
2018-03-18T06:46:51.264Z,112.50
2018-03-18T06:47:51.313Z,118.13
2018-03-18T06:48:51.363Z,101.25
2018-03-18T06:49:51.412Z,101.25
2018-03-18T06:50:51.511Z,106.88
2018-03-18T06:51:51.510Z,101.25
2018-03-18T06:52:51.560Z,101.25
2018-03-18T06:53:51.610Z,129.38
2018-03-18T06:54:51.675Z,123.75
2018-03-18T06:55:51.710Z,123.75
2018-03-18T06:56:51.757Z,123.75
2018-03-18T06:57:51.807Z,123.75
2018-03-18T06:58:51.857Z,140.63
2018-03-18T06:59:51.906Z,157.50
2018-03-18T07:00:51.956Z,180.00
2018-03-18T07:01:52.006Z,151.88
2018-03-18T07:02:52.056Z,157.50
2018-03-18T07:03:52.256Z,168.75
2018-03-18T07:04:52.158Z,163.13
2018-03-18T07:05:52.203Z,163.13
2018-03-18T07:06:52.258Z,135.00
2018-03-18T07:07:52.303Z,140.63
2018-03-18T07:08:52.353Z,151.88
2018-03-18T07:09:52.401Z,146.25
2018-03-18T07:10:52.451Z,163.13
2018-03-18T07:11:52.502Z,151.88
2018-03-18T07:12:52.553Z,151.88
2018-03-18T07:13:52.602Z,191.25
2018-03-18T07:14:52.652Z,191.25
2018-03-18T07:15:52.701Z,191.25
2018-03-18T07:16:52.751Z,185.63
2018-03-18T07:17:52.800Z,135.00
2018-03-18T07:18:52.849Z,157.50
2018-03-18T07:19:52.899Z,191.25
2018-03-18T07:20:52.949Z,180.00
2018-03-18T07:21:52.999Z,174.38
2018-03-18T07:22:53.067Z,180.00
2018-03-18T07:23:53.099Z,185.63
2018-03-18T07:24:53.149Z,180.00
2018-03-18T07:25:53.199Z,174.38
2018-03-18T07:26:53.647Z,151.88
2018-03-18T07:27:53.297Z,140.63
2018-03-18T07:28:53.347Z,168.75
2018-03-18T07:29:53.396Z,163.13
2018-03-18T07:30:53.446Z,180.00
2018-03-18T07:31:53.497Z,196.88
2018-03-18T07:32:53.547Z,196.88
2018-03-18T07:33:53.594Z,180.00
2018-03-18T07:34:53.645Z,151.88
2018-03-18T07:35:53.699Z,135.00
2018-03-18T07:36:53.745Z,135.00
2018-03-18T07:37:53.793Z,163.13
2018-03-18T07:38:53.846Z,174.38
2018-03-18T07:39:53.895Z,208.13
2018-03-18T07:40:53.943Z,213.75
2018-03-18T07:41:53.993Z,213.75
2018-03-18T07:42:54.044Z,191.25
2018-03-18T07:43:54.092Z,168.75
2018-03-18T07:44:54.142Z,174.38
2018-03-18T07:45:54.192Z,180.00
2018-03-18T07:46:54.243Z,174.38
2018-03-18T07:47:54.292Z,163.13
2018-03-18T07:48:54.341Z,168.75
2018-03-18T07:49:54.390Z,174.38
2018-03-18T07:50:54.442Z,174.38
2018-03-18T07:51:54.492Z,163.13
2018-03-18T07:52:54.541Z,151.88
2018-03-18T07:53:54.589Z,157.50
2018-03-18T07:54:54.639Z,196.88
2018-03-18T07:55:54.690Z,157.50
2018-03-18T07:56:55.351Z,163.13
2018-03-18T07:57:54.789Z,140.63
2018-03-18T07:58:54.839Z,146.25
2018-03-18T07:59:54.889Z,151.88
2018-03-18T08:00:54.940Z,168.75
2018-03-18T08:01:54.989Z,140.63
2018-03-18T08:02:55.038Z,123.75
2018-03-18T08:03:55.087Z,123.75
2018-03-18T08:04:55.138Z,135.00
2018-03-18T08:05:55.185Z,140.63
2018-03-18T08:06:55.240Z,140.63
2018-03-18T08:07:55.286Z,135.00
2018-03-18T08:08:55.336Z,129.38
2018-03-18T08:09:55.388Z,135.00
2018-03-18T08:10:55.435Z,146.25
2018-03-18T08:11:55.486Z,157.50
2018-03-18T08:12:55.534Z,146.25
2018-03-18T08:13:55.584Z,163.13
2018-03-18T08:14:55.632Z,174.38
2018-03-18T08:15:55.686Z,168.75
2018-03-18T08:16:55.733Z,163.13
2018-03-18T08:17:55.781Z,157.50
2018-03-18T08:18:55.831Z,157.50
2018-03-18T08:19:55.883Z,163.13
2018-03-18T08:20:55.986Z,157.50
2018-03-18T08:21:55.980Z,168.75
2018-03-18T08:22:56.031Z,196.88
2018-03-18T08:23:56.080Z,202.50
2018-03-18T08:24:56.131Z,219.38
2018-03-18T08:25:56.180Z,241.88
2018-03-18T08:26:56.229Z,236.25
2018-03-18T08:27:56.279Z,236.25
2018-03-18T08:28:56.328Z,264.38
2018-03-18T08:29:56.379Z,247.50
2018-03-18T08:30:56.430Z,258.75
2018-03-18T08:31:56.484Z,241.88
2018-03-18T08:32:56.529Z,253.13
2018-03-18T08:33:56.582Z,258.75
2018-03-18T08:34:56.627Z,247.50
2018-03-18T08:35:56.707Z,225.00
2018-03-18T08:36:56.728Z,219.38
2018-03-18T08:37:56.778Z,219.38
2018-03-18T08:38:56.829Z,191.25
2018-03-18T08:39:56.879Z,196.88
2018-03-18T08:40:56.928Z,191.25
2018-03-18T08:41:56.978Z,196.88
2018-03-18T08:42:57.028Z,230.63
2018-03-18T08:43:57.077Z,225.00
2018-03-18T08:44:57.128Z,196.88
2018-03-18T08:45:57.328Z,180.00
2018-03-18T08:46:57.227Z,174.38
2018-03-18T08:47:57.278Z,163.13
2018-03-18T08:48:57.327Z,196.88
2018-03-18T08:49:57.375Z,219.38
2018-03-18T08:50:57.455Z,219.38
2018-03-18T08:51:57.477Z,202.50
2018-03-18T08:52:57.531Z,241.88
2018-03-18T08:53:58.200Z,230.63
2018-03-18T08:54:57.625Z,270.00
2018-03-18T08:55:57.676Z,275.63
2018-03-18T08:56:57.728Z,247.50
2018-03-18T08:57:57.775Z,247.50
2018-03-18T08:58:57.827Z,258.75
2018-03-18T08:59:58.433Z,326.25
2018-03-18T09:00:57.927Z,376.88
2018-03-18T09:01:57.976Z,354.38
2018-03-18T09:02:58.175Z,337.50
2018-03-18T09:03:58.086Z,433.13
2018-03-18T09:04:58.128Z,433.13
2018-03-18T09:05:58.175Z,455.63
2018-03-18T09:06:58.224Z,416.25
2018-03-18T09:07:58.276Z,399.38
2018-03-18T09:08:58.326Z,427.50
2018-03-18T09:09:58.381Z,433.13
2018-03-18T09:10:58.426Z,416.25
2018-03-18T09:11:58.476Z,399.38
2018-03-18T09:12:58.527Z,382.50
2018-03-18T09:13:58.577Z,309.38
2018-03-18T09:14:58.631Z,382.50
2018-03-18T09:15:58.678Z,360.00
2018-03-18T09:16:58.732Z,253.13
2018-03-18T09:17:58.777Z,230.63
2018-03-18T09:18:58.828Z,247.50
2018-03-18T09:19:59.029Z,230.63
2018-03-18T09:20:58.929Z,191.25
2018-03-18T09:21:58.977Z,196.88
2018-03-18T09:22:59.030Z,191.25
2018-03-18T09:23:59.079Z,180.00
2018-03-18T09:24:59.131Z,174.38
2018-03-18T09:25:59.180Z,191.25
2018-03-18T09:26:59.230Z,196.88
2018-03-18T09:27:59.283Z,196.88
2018-03-18T09:28:59.331Z,185.63
2018-03-18T09:29:59.381Z,191.25
2018-03-18T09:30:59.481Z,191.25
2018-03-18T09:31:59.484Z,191.25
2018-03-18T09:32:59.531Z,196.88
2018-03-18T09:33:59.580Z,191.25
2018-03-18T09:34:59.632Z,208.13
2018-03-18T09:35:59.683Z,213.75
2018-03-18T09:36:59.733Z,202.50
2018-03-18T09:37:59.783Z,219.38
2018-03-18T09:38:59.833Z,208.13
2018-03-18T09:39:59.883Z,213.75
2018-03-18T09:40:59.933Z,241.88
2018-03-18T09:42:00.434Z,270.00
2018-03-18T09:43:00.033Z,275.63
2018-03-18T09:44:00.084Z,281.25
2018-03-18T09:45:00.135Z,292.50
2018-03-18T09:46:00.183Z,315.00
2018-03-18T09:47:00.233Z,337.50
2018-03-18T09:48:00.284Z,343.13
2018-03-18T09:49:00.335Z,371.25
2018-03-18T09:50:00.389Z,376.88
2018-03-18T09:51:00.440Z,354.38
2018-03-18T09:52:00.487Z,388.13
2018-03-18T09:53:00.537Z,410.63
2018-03-18T09:54:00.585Z,410.63
2018-03-18T09:55:00.637Z,478.13
2018-03-18T09:56:00.688Z,590.63
2018-03-18T09:57:00.739Z,573.75
2018-03-18T09:58:00.788Z,568.13
2018-03-18T09:59:00.838Z,545.63
2018-03-18T10:00:00.891Z,579.38
2018-03-18T10:01:00.941Z,607.50
2018-03-18T10:02:00.991Z,618.75
2018-03-18T10:03:01.042Z,630.00
2018-03-18T10:04:01.092Z,590.63
2018-03-18T10:05:01.147Z,545.63
2018-03-18T10:06:01.194Z,613.13
2018-03-18T10:07:01.249Z,652.50
2018-03-18T10:08:01.297Z,652.50
2018-03-18T10:09:01.348Z,675.00
2018-03-18T10:10:01.405Z,703.13
2018-03-18T10:11:01.451Z,652.50
2018-03-18T10:12:01.502Z,663.75
2018-03-18T10:13:01.555Z,630.00
2018-03-18T10:14:01.651Z,573.75
2018-03-18T10:15:01.663Z,500.63
2018-03-18T10:16:02.441Z,483.75
2018-03-18T10:17:01.761Z,562.50
2018-03-18T10:18:01.816Z,675.00
2018-03-18T10:19:01.862Z,641.25
2018-03-18T10:20:01.916Z,596.25
2018-03-18T10:21:01.967Z,511.88
2018-03-18T10:22:02.019Z,466.88
2018-03-18T10:23:02.070Z,478.13
2018-03-18T10:24:02.135Z,427.50
2018-03-18T10:25:02.180Z,405.00
2018-03-18T10:26:02.227Z,376.88
2018-03-18T10:27:02.278Z,365.63
2018-03-18T10:28:02.331Z,410.63
2018-03-18T10:29:02.381Z,410.63
2018-03-18T10:30:02.432Z,371.25
2018-03-18T10:31:02.486Z,331.88
2018-03-18T10:32:02.535Z,303.75
2018-03-18T10:33:02.587Z,326.25
2018-03-18T10:34:02.640Z,365.63
2018-03-18T10:35:02.693Z,399.38
2018-03-18T10:36:02.741Z,450.00
2018-03-18T10:37:02.793Z,433.13
2018-03-18T10:38:02.845Z,421.88
2018-03-18T10:39:02.897Z,416.25
2018-03-18T10:40:02.947Z,399.38
2018-03-18T10:41:03.001Z,410.63
2018-03-18T10:42:03.077Z,382.50
2018-03-18T10:43:03.102Z,376.88
2018-03-18T10:44:03.153Z,365.63
2018-03-18T10:45:03.206Z,343.13
2018-03-18T10:46:03.256Z,360.00
2018-03-18T10:47:03.308Z,393.75
2018-03-18T10:48:03.360Z,416.25
2018-03-18T10:49:03.413Z,421.88
2018-03-18T10:50:03.463Z,433.13
2018-03-18T10:51:03.516Z,466.88
2018-03-18T10:52:03.566Z,523.13
2018-03-18T10:53:03.623Z,511.88
2018-03-18T10:54:03.668Z,478.13
2018-03-18T10:55:03.722Z,461.25
2018-03-18T10:56:03.922Z,472.50
2018-03-18T10:57:03.825Z,483.75
2018-03-18T10:58:03.873Z,523.13
2018-03-18T10:59:03.926Z,607.50
2018-03-18T11:00:03.978Z,658.13
2018-03-18T11:01:04.030Z,708.75
2018-03-18T11:02:04.080Z,714.38
2018-03-18T11:03:04.130Z,635.63
2018-03-18T11:04:04.185Z,596.25
2018-03-18T11:05:04.237Z,635.63
2018-03-18T11:06:04.287Z,618.75
2018-03-18T11:07:04.489Z,686.25
2018-03-18T11:08:04.390Z,714.38
2018-03-18T11:09:04.505Z,697.50
2018-03-18T11:10:04.497Z,736.88
2018-03-18T11:11:04.546Z,708.75
2018-03-18T11:12:04.599Z,669.38
2018-03-18T11:13:04.651Z,669.38
2018-03-18T11:14:04.703Z,736.88
2018-03-18T11:15:04.762Z,770.63
2018-03-18T11:16:04.830Z,742.50
2018-03-18T11:17:04.858Z,669.38
2018-03-18T11:18:04.911Z,601.88
2018-03-18T11:19:04.964Z,528.75
2018-03-18T11:20:05.015Z,534.38
2018-03-18T11:21:05.068Z,511.88
2018-03-18T11:22:05.124Z,466.88
2018-03-18T11:23:05.171Z,438.75
2018-03-18T11:24:05.226Z,444.38
2018-03-18T11:25:05.277Z,466.88
2018-03-18T11:26:05.332Z,523.13
2018-03-18T11:27:05.379Z,540.00
2018-03-18T11:28:05.434Z,691.88
2018-03-18T11:29:05.486Z,855.00
2018-03-18T11:30:05.590Z,905.63
2018-03-18T11:31:05.588Z,900.00
2018-03-18T11:32:05.642Z,804.38
2018-03-18T11:33:05.695Z,697.50
2018-03-18T11:34:05.750Z,686.25
2018-03-18T11:35:05.800Z,770.63
2018-03-18T11:36:05.851Z,770.63
2018-03-18T11:37:05.904Z,776.25
2018-03-18T11:38:05.955Z,675.00
2018-03-18T11:39:06.008Z,736.88
2018-03-18T11:40:06.060Z,759.38
2018-03-18T11:41:06.115Z,691.88
2018-03-18T11:42:06.166Z,686.25
2018-03-18T11:43:06.229Z,635.63
2018-03-18T11:44:06.272Z,607.50
2018-03-18T11:45:06.325Z,658.13
2018-03-18T11:46:06.376Z,776.25
2018-03-18T11:47:06.430Z,731.25
2018-03-18T11:48:06.483Z,652.50
2018-03-18T11:49:06.535Z,686.25
2018-03-18T11:50:06.587Z,691.88
2018-03-18T11:51:06.639Z,663.75
2018-03-18T11:52:07.039Z,703.13
2018-03-18T11:53:06.750Z,748.13
2018-03-18T11:54:06.808Z,798.75
2018-03-18T11:55:06.851Z,883.13
2018-03-18T11:56:06.904Z,900.00
2018-03-18T11:57:06.957Z,826.88
2018-03-18T11:58:07.019Z,793.13
2018-03-18T11:59:07.065Z,736.88
2018-03-18T12:00:07.115Z,720.00
2018-03-18T12:01:07.214Z,714.38
2018-03-18T12:02:07.220Z,691.88
2018-03-18T12:03:07.277Z,635.63
2018-03-18T12:04:07.326Z,607.50
2018-03-18T12:05:07.380Z,601.88
2018-03-18T12:06:07.436Z,641.25
2018-03-18T12:07:07.493Z,731.25
2018-03-18T12:08:07.542Z,753.75
2018-03-18T12:09:07.590Z,697.50
2018-03-18T12:10:08.046Z,663.75
2018-03-18T12:11:07.700Z,770.63
2018-03-18T12:12:07.749Z,849.38
2018-03-18T12:13:07.802Z,860.63
2018-03-18T12:14:07.859Z,798.75
2018-03-18T12:15:07.909Z,821.25
2018-03-18T12:16:07.960Z,838.13
2018-03-18T12:17:08.014Z,843.75
2018-03-18T12:18:08.064Z,832.50
2018-03-18T12:19:08.120Z,776.25
2018-03-18T12:20:08.171Z,753.75
2018-03-18T12:21:08.225Z,736.88
2018-03-18T12:22:08.283Z,770.63
2018-03-18T12:23:08.330Z,793.13
2018-03-18T12:24:08.386Z,832.50
2018-03-18T12:25:08.438Z,815.63
2018-03-18T12:26:08.489Z,759.38
2018-03-18T12:27:09.196Z,776.25
2018-03-18T12:28:08.595Z,765.00
2018-03-18T12:29:08.653Z,691.88
2018-03-18T12:30:08.704Z,725.63
2018-03-18T12:31:08.756Z,804.38
2018-03-18T12:32:08.960Z,815.63
2018-03-18T12:33:08.864Z,725.63
2018-03-18T12:34:08.923Z,703.13
2018-03-18T12:35:08.969Z,686.25
2018-03-18T12:36:09.023Z,658.13
2018-03-18T12:37:09.077Z,646.88
2018-03-18T12:38:09.129Z,646.88
2018-03-18T12:39:09.195Z,697.50
2018-03-18T12:40:09.240Z,742.50
2018-03-18T12:41:09.289Z,815.63
2018-03-18T12:42:09.342Z,826.88
2018-03-18T12:43:09.396Z,894.38
2018-03-18T12:44:09.450Z,1018.13
2018-03-18T12:45:09.502Z,1040.63
2018-03-18T12:46:10.224Z,1096.88
2018-03-18T12:47:10.042Z,1226.25
2018-03-18T12:48:09.662Z,1316.25
2018-03-18T12:49:09.717Z,1395.00
2018-03-18T12:50:09.768Z,1423.13
2018-03-18T12:51:09.823Z,1406.25
2018-03-18T12:52:09.878Z,1366.88